createdAt,value
2022-09-26T00:00:30.484Z,100243.28
2022-09-26T00:02:58.087Z,100230.94
2022-09-26T00:05:26.944Z,100233.41
2022-09-26T00:07:54.414Z,100236.50
2022-09-26T00:10:21.913Z,100240.00
2022-09-26T00:12:49.370Z,100228.00
2022-09-26T00:15:16.959Z,100222.13
2022-09-26T00:17:44.407Z,100232.88
2022-09-26T00:20:11.975Z,100218.94
2022-09-26T00:22:40.831Z,100223.72
2022-09-26T00:25:09.196Z,100229.94
2022-09-26T00:27:36.646Z,100225.06
2022-09-26T00:30:05.023Z,100228.28
2022-09-26T00:32:32.488Z,100226.25
2022-09-26T00:34:59.998Z,100230.00
2022-09-26T00:37:27.584Z,100225.41
2022-09-26T00:39:56.421Z,100217.75
2022-09-26T00:42:25.075Z,100226.81
2022-09-26T00:44:54.603Z,100216.19
2022-09-26T00:47:40.593Z,100207.66
2022-09-26T00:50:13.717Z,100215.75
2022-09-26T00:52:44.743Z,100205.13
2022-09-26T00:55:15.334Z,100200.00
2022-09-26T00:57:46.371Z,100206.94
2022-09-26T01:00:15.784Z,100198.16
2022-09-26T01:02:44.100Z,100204.72
2022-09-26T01:05:14.601Z,100202.66
2022-09-26T01:07:42.121Z,100198.69
2022-09-26T01:10:10.451Z,100194.78
2022-09-26T01:12:39.749Z,100193.22
2022-09-26T01:15:09.305Z,100185.78
2022-09-26T01:17:37.928Z,100184.03
2022-09-26T01:20:14.720Z,100178.72
2022-09-26T01:23:07.068Z,100186.16
2022-09-26T01:25:50.652Z,100175.81
2022-09-26T01:28:34.963Z,100177.47
2022-09-26T01:31:11.895Z,100173.16
2022-09-26T01:33:49.588Z,100168.88
2022-09-26T01:36:27.543Z,100173.91
2022-09-26T01:39:04.426Z,100167.78
2022-09-26T01:41:44.012Z,100161.34
2022-09-26T01:44:20.745Z,100161.16
2022-09-26T01:46:53.362Z,100157.78
2022-09-26T01:49:24.268Z,100168.78
2022-09-26T01:51:55.730Z,100156.34
2022-09-26T01:54:27.602Z,100160.25
2022-09-26T01:56:58.273Z,100158.25
2022-09-26T01:59:28.334Z,100159.63
2022-09-26T02:02:00.847Z,100153.03
2022-09-26T02:04:32.121Z,100154.31
2022-09-26T02:07:01.647Z,100143.44
2022-09-26T02:09:31.242Z,100154.59
2022-09-26T02:12:02.438Z,100154.84
2022-09-26T02:14:32.853Z,100149.34
2022-09-26T02:17:05.603Z,100141.88
2022-09-26T02:19:36.353Z,100145.78
2022-09-26T02:22:04.116Z,100137.84
2022-09-26T02:24:31.679Z,100132.16
2022-09-26T02:26:59.260Z,100126.84
2022-09-26T02:29:27.927Z,100126.31
2022-09-26T02:31:58.418Z,100118.63
2022-09-26T02:34:27.582Z,100115.69
2022-09-26T02:36:55.879Z,100112.22
2022-09-26T02:39:23.432Z,100110.28
2022-09-26T02:41:54.138Z,100116.06
2022-09-26T02:44:32.107Z,100116.25
2022-09-26T02:47:10.789Z,100095.22
2022-09-26T02:49:51.079Z,100104.53
2022-09-26T02:52:27.161Z,100097.31
2022-09-26T02:55:01.856Z,100103.53
2022-09-26T02:57:35.750Z,100099.69
2022-09-26T03:00:06.826Z,100088.41
2022-09-26T03:02:37.138Z,100097.53
2022-09-26T03:05:10.044Z,100096.56
2022-09-26T03:07:43.752Z,100086.31
2022-09-26T03:10:12.982Z,100074.25
2022-09-26T03:12:40.912Z,100075.13
2022-09-26T03:15:09.651Z,100077.03
2022-09-26T03:17:38.039Z,100079.13
2022-09-26T03:20:11.089Z,100074.91
2022-09-26T03:22:38.962Z,100076.84
2022-09-26T03:25:09.034Z,100071.53
2022-09-26T03:27:38.222Z,100074.41
2022-09-26T03:30:06.512Z,100069.72
2022-09-26T03:32:33.974Z,100069.00
2022-09-26T03:35:01.490Z,100065.44
2022-09-26T03:37:30.306Z,100059.97
2022-09-26T03:39:57.751Z,100054.84
2022-09-26T03:42:25.229Z,100045.94
2022-09-26T03:44:53.157Z,100046.78
2022-09-26T03:47:20.585Z,100043.59
2022-09-26T03:49:48.107Z,100040.50
2022-09-26T03:52:15.665Z,100031.16
2022-09-26T03:54:44.789Z,100023.66
2022-09-26T03:57:13.504Z,100021.28
2022-09-26T03:59:41.194Z,100023.03
2022-09-26T04:02:08.984Z,100016.41
2022-09-26T04:04:36.588Z,100008.69
2022-09-26T04:07:04.338Z,99999.34
2022-09-26T04:09:32.374Z,99999.97
2022-09-26T04:12:01.441Z,100003.38
2022-09-26T04:14:28.900Z,99994.38
2022-09-26T04:16:56.738Z,99994.22
2022-09-26T04:19:24.401Z,99990.91
2022-09-26T04:21:52.067Z,99999.97
2022-09-26T04:24:19.525Z,99996.69
2022-09-26T04:26:46.972Z,99991.41
2022-09-26T04:29:16.003Z,99984.25
2022-09-26T04:31:44.034Z,99976.63
2022-09-26T04:34:12.187Z,99962.09
2022-09-26T04:36:40.040Z,99979.69
2022-09-26T04:39:07.680Z,99975.00
2022-09-26T04:41:35.580Z,99976.19
2022-09-26T04:44:03.306Z,99980.84
2022-09-26T04:46:32.168Z,99970.25
2022-09-26T04:49:00.956Z,99985.41
2022-09-26T04:51:29.580Z,99976.38
2022-09-26T04:53:57.149Z,99981.97
2022-09-26T04:56:27.036Z,99964.47
2022-09-26T04:58:56.820Z,99958.25
2022-09-26T05:01:24.774Z,99952.69
2022-09-26T05:03:55.050Z,99956.38
2022-09-26T05:06:22.544Z,99959.81
2022-09-26T05:08:50.817Z,99948.22
2022-09-26T05:11:19.718Z,99947.91
2022-09-26T05:13:53.059Z,99949.94
2022-09-26T05:16:21.045Z,99950.59
2022-09-26T05:18:50.892Z,99939.53
2022-09-26T05:21:19.707Z,99928.34
2022-09-26T05:24:05.097Z,99936.50
2022-09-26T05:26:39.505Z,99944.25
2022-09-26T05:29:08.907Z,99938.78
2022-09-26T05:31:38.014Z,99929.47
2022-09-26T05:34:06.073Z,99935.81
2022-09-26T05:36:35.152Z,99931.88
2022-09-26T05:39:03.073Z,99935.25
2022-09-26T05:41:31.185Z,99917.72
2022-09-26T05:43:58.957Z,99912.25
2022-09-26T05:46:28.003Z,99919.41
2022-09-26T05:48:57.139Z,99921.34
2022-09-26T05:51:25.813Z,99914.84
2022-09-26T05:53:54.682Z,99914.00
2022-09-26T05:56:23.520Z,99915.91
2022-09-26T05:58:51.348Z,99910.59
2022-09-26T06:01:19.539Z,99907.13
2022-09-26T06:03:48.063Z,99905.66
2022-09-26T06:06:18.794Z,99912.69
2022-09-26T06:08:47.139Z,99911.56
2022-09-26T06:11:17.693Z,99910.53
2022-09-26T06:13:46.487Z,99904.72
2022-09-26T06:16:15.852Z,99911.66
2022-09-26T06:18:43.500Z,99903.97
2022-09-26T06:21:13.212Z,99896.81
2022-09-26T06:23:40.823Z,99896.75
2022-09-26T06:26:10.185Z,99893.34
2022-09-26T06:28:40.109Z,99887.88
2022-09-26T06:31:10.255Z,99887.13
2022-09-26T06:33:37.754Z,99893.38
2022-09-26T06:36:07.477Z,99888.13
2022-09-26T06:38:35.506Z,99890.78
2022-09-26T06:41:03.317Z,99885.13
2022-09-26T06:43:31.203Z,99889.47
2022-09-26T06:46:00.005Z,99874.59
2022-09-26T06:48:27.543Z,99885.22
2022-09-26T06:50:55.607Z,99879.13
2022-09-26T06:53:23.671Z,99886.91
2022-09-26T06:55:51.128Z,99887.75
2022-09-26T06:58:18.739Z,99888.72
2022-09-26T07:00:46.210Z,99886.91
2022-09-26T07:03:15.961Z,99879.47
2022-09-26T07:05:43.707Z,99875.31
2022-09-26T07:08:11.299Z,99875.50
2022-09-26T07:10:38.748Z,99865.66
2022-09-26T07:13:07.608Z,99872.47
2022-09-26T07:15:36.958Z,99873.28
2022-09-26T07:18:06.294Z,99880.69
2022-09-26T07:20:37.588Z,99869.22
2022-09-26T07:23:08.475Z,99870.91
2022-09-26T07:25:38.704Z,99868.50
2022-09-26T07:28:06.731Z,99862.13
2022-09-26T07:30:34.245Z,99860.78
2022-09-26T07:33:04.013Z,99853.88
2022-09-26T07:35:32.229Z,99851.84
2022-09-26T07:38:01.062Z,99849.19
2022-09-26T07:40:28.953Z,99845.78
2022-09-26T07:43:18.715Z,99840.50
2022-09-26T07:46:07.709Z,99852.38
2022-09-26T07:48:53.140Z,99843.81
2022-09-26T07:51:22.594Z,99838.91
2022-09-26T07:53:51.503Z,99840.34
2022-09-26T07:56:18.968Z,99839.13
2022-09-26T07:58:46.625Z,99838.53
2022-09-26T08:01:15.972Z,99841.19
2022-09-26T08:03:46.030Z,99831.75
2022-09-26T08:06:14.619Z,99823.78
2022-09-26T08:08:42.278Z,99817.81
2022-09-26T08:11:16.725Z,99822.97
2022-09-26T08:13:44.629Z,99821.31
2022-09-26T08:16:19.200Z,99820.47
2022-09-26T08:18:47.357Z,99820.84
2022-09-26T08:21:14.836Z,99817.97
2022-09-26T08:23:42.360Z,99820.88
2022-09-26T08:26:09.849Z,99816.59
2022-09-26T08:28:39.205Z,99808.81
2022-09-26T08:31:08.131Z,99812.88
2022-09-26T08:33:38.621Z,99809.03
2022-09-26T08:36:06.526Z,99800.00
2022-09-26T08:38:35.400Z,99808.63
2022-09-26T08:41:11.509Z,99805.09
2022-09-26T08:43:54.004Z,99792.19
2022-09-26T08:46:40.776Z,99799.34
2022-09-26T08:49:23.991Z,99795.66
2022-09-26T08:51:52.791Z,99793.63
2022-09-26T08:54:23.698Z,99798.31
2022-09-26T08:56:53.780Z,99798.91
2022-09-26T08:59:27.165Z,99790.66
2022-09-26T09:01:56.582Z,99789.63
2022-09-26T09:04:28.697Z,99790.00
2022-09-26T09:06:59.680Z,99780.03
2022-09-26T09:09:27.147Z,99784.31
2022-09-26T09:12:05.171Z,99776.66
2022-09-26T09:14:57.966Z,99784.09
2022-09-26T09:17:39.379Z,99782.69
2022-09-26T09:20:16.076Z,99781.72
2022-09-26T09:23:01.750Z,99777.97
2022-09-26T09:25:32.526Z,99769.44
2022-09-26T09:28:16.243Z,99772.66
2022-09-26T09:30:48.123Z,99769.91
2022-09-26T09:33:17.683Z,99764.25
2022-09-26T09:35:48.803Z,99757.94
2022-09-26T09:38:18.637Z,99755.38
2022-09-26T09:40:51.893Z,99757.03
2022-09-26T09:43:26.743Z,99746.00
2022-09-26T09:45:58.834Z,99740.63
2022-09-26T09:48:28.202Z,99733.31
2022-09-26T09:51:08.574Z,99726.75
2022-09-26T09:53:48.180Z,99716.00
2022-09-26T09:56:24.275Z,99705.22
2022-09-26T09:59:03.736Z,99709.69
2022-09-26T10:01:36.641Z,99694.84
2022-09-26T10:04:07.958Z,99699.03
2022-09-26T10:06:44.164Z,99691.81
2022-09-26T10:09:35.589Z,99686.72
2022-09-26T10:12:13.317Z,99685.00
2022-09-26T10:14:44.000Z,99679.91
2022-09-26T10:17:21.175Z,99667.63
2022-09-26T10:19:49.034Z,99663.09
2022-09-26T10:22:26.005Z,99670.78
2022-09-26T10:24:55.427Z,99666.56
2022-09-26T10:27:35.410Z,99667.88
2022-09-26T10:30:04.775Z,99657.44
2022-09-26T10:32:45.680Z,99665.22
2022-09-26T10:35:20.073Z,99668.25
2022-09-26T10:37:50.099Z,99669.75
2022-09-26T10:40:42.504Z,99667.97
2022-09-26T10:43:24.995Z,99669.59
2022-09-26T10:45:55.383Z,99675.13
2022-09-26T10:48:48.054Z,99676.75
2022-09-26T10:51:19.865Z,99663.16
2022-09-26T10:53:51.994Z,99670.34
2022-09-26T10:56:26.143Z,99664.78
2022-09-26T10:58:58.272Z,99659.19
2022-09-26T11:01:27.674Z,99661.81
2022-09-26T11:03:59.921Z,99657.19
2022-09-26T11:06:29.081Z,99658.72
2022-09-26T11:09:02.889Z,99656.91
2022-09-26T11:11:33.633Z,99660.66
2022-09-26T11:14:05.696Z,99657.00
2022-09-26T11:16:51.662Z,99651.75
2022-09-26T11:19:27.703Z,99651.19
2022-09-26T11:22:03.251Z,99655.75
2022-09-26T11:24:38.191Z,99655.16
2022-09-26T11:27:13.311Z,99642.19
2022-09-26T11:29:44.422Z,99650.78
2022-09-26T11:32:15.108Z,99643.16
2022-09-26T11:34:44.172Z,99646.28
2022-09-26T11:37:22.083Z,99637.47
2022-09-26T11:40:00.441Z,99631.28
2022-09-26T11:42:39.595Z,99633.03
2022-09-26T11:45:15.218Z,99628.97
2022-09-26T11:47:58.061Z,99631.06
2022-09-26T11:50:49.490Z,99622.19
2022-09-26T11:53:33.361Z,99614.63
2022-09-26T11:56:15.816Z,99611.13
2022-09-26T11:58:48.335Z,99607.25
2022-09-26T12:01:24.317Z,99601.81
2022-09-26T12:04:16.386Z,99597.84
2022-09-26T12:06:52.197Z,99587.53
2022-09-26T12:09:32.834Z,99589.59
2022-09-26T12:12:09.522Z,99592.63
2022-09-26T12:14:45.847Z,99588.13
2022-09-26T12:17:21.596Z,99578.16
2022-09-26T12:19:56.469Z,99569.69
2022-09-26T12:22:29.701Z,99568.44
2022-09-26T12:25:13.052Z,99569.91
2022-09-26T12:27:47.896Z,99553.59
2022-09-26T12:30:17.149Z,99541.53
2022-09-26T12:33:02.669Z,99543.16
2022-09-26T12:35:38.412Z,99537.09
2022-09-26T12:38:20.409Z,99532.03
2022-09-26T12:40:56.200Z,99522.06
2022-09-26T12:43:38.410Z,99522.31
2022-09-26T12:46:16.952Z,99513.38
2022-09-26T12:48:55.997Z,99514.44
2022-09-26T12:51:30.857Z,99500.56
2022-09-26T12:54:20.776Z,99501.69
2022-09-26T12:56:53.111Z,99503.47
2022-09-26T12:59:37.797Z,99501.31
2022-09-26T13:02:20.226Z,99507.06
2022-09-26T13:05:08.466Z,99504.13
2022-09-26T13:07:44.813Z,99496.63
2022-09-26T13:10:41.963Z,99491.38
2022-09-26T13:13:30.205Z,99489.53
2022-09-26T13:16:08.164Z,99495.00
2022-09-26T13:18:44.679Z,99484.63
2022-09-26T13:21:14.638Z,99484.16
2022-09-26T13:23:46.863Z,99475.91
2022-09-26T13:26:19.835Z,99480.19
2022-09-26T13:29:12.859Z,99472.47
2022-09-26T13:31:40.927Z,99476.19
2022-09-26T13:34:14.809Z,99455.00
2022-09-26T13:36:43.336Z,99450.75
2022-09-26T13:39:16.245Z,99443.16
2022-09-26T13:41:49.251Z,99447.97
2022-09-26T13:44:27.027Z,99443.28
2022-09-26T13:47:03.468Z,99448.44
2022-09-26T13:49:40.075Z,99442.63
2022-09-26T13:52:19.960Z,99446.91
2022-09-26T13:54:57.145Z,99437.63
2022-09-26T13:57:31.724Z,99438.38
2022-09-26T13:59:59.617Z,99429.31
2022-09-26T14:02:29.174Z,99434.56
2022-09-26T14:05:28.497Z,99415.22
2022-09-26T14:08:13.571Z,99408.19
2022-09-26T14:10:43.298Z,99405.16
2022-09-26T14:13:21.777Z,99406.69
2022-09-26T14:16:03.453Z,99393.84
2022-09-26T14:18:47.296Z,99390.50
2022-09-26T14:21:32.679Z,99388.53
2022-09-26T14:24:37.116Z,99382.44
2022-09-26T14:27:21.737Z,99376.66
2022-09-26T14:29:53.572Z,99371.81
2022-09-26T14:32:24.001Z,99367.59
2022-09-26T14:34:57.205Z,99368.03
2022-09-26T14:37:30.890Z,99348.84
2022-09-26T14:40:07.135Z,99342.34
2022-09-26T14:42:38.325Z,99348.56
2022-09-26T14:45:09.663Z,99349.72
2022-09-26T14:47:41.192Z,99340.91
2022-09-26T14:50:17.499Z,99336.69
2022-09-26T14:52:51.564Z,99331.81
2022-09-26T14:55:20.194Z,99324.84
2022-09-26T14:57:48.965Z,99315.97
2022-09-26T15:00:40.317Z,99313.25
2022-09-26T15:03:14.742Z,99301.69
2022-09-26T15:05:43.392Z,99311.31
2022-09-26T15:08:24.358Z,99305.91
2022-09-26T15:10:53.010Z,99292.75
2022-09-26T15:13:28.192Z,99305.78
2022-09-26T15:16:02.110Z,99302.34
2022-09-26T15:18:34.617Z,99299.47
2022-09-26T15:21:10.791Z,99294.06
2022-09-26T15:23:47.861Z,99292.84
2022-09-26T15:26:17.762Z,99278.63
2022-09-26T15:28:48.411Z,99283.72
2022-09-26T15:31:22.567Z,99278.13
2022-09-26T15:33:55.993Z,99287.81
2022-09-26T15:36:23.624Z,99267.34
2022-09-26T15:38:51.185Z,99256.53
2022-09-26T15:41:42.509Z,99258.06
2022-09-26T15:44:20.548Z,99247.25
2022-09-26T15:46:50.897Z,99250.72
2022-09-26T15:49:22.905Z,99254.56
2022-09-26T15:51:54.042Z,99250.81
2022-09-26T15:54:24.055Z,99246.53
2022-09-26T15:56:52.204Z,99240.25
2022-09-26T15:59:22.608Z,99231.31
2022-09-26T16:01:52.454Z,99229.22
2022-09-26T16:04:22.411Z,99229.69
2022-09-26T16:06:56.728Z,99225.97
2022-09-26T16:09:27.275Z,99225.63
2022-09-26T16:11:56.470Z,99220.25
2022-09-26T16:14:27.039Z,99223.03
2022-09-26T16:17:02.758Z,99216.94
2022-09-26T16:19:33.505Z,99210.28
2022-09-26T16:22:22.431Z,99205.09
2022-09-26T16:24:50.940Z,99202.72
2022-09-26T16:27:25.061Z,99202.41
2022-09-26T16:29:52.937Z,99193.13
2022-09-26T16:32:23.229Z,99191.34
2022-09-26T16:34:51.122Z,99182.66
2022-09-26T16:37:19.607Z,99193.97
2022-09-26T16:39:56.070Z,99183.03
2022-09-26T16:42:32.679Z,99171.88
2022-09-26T16:45:04.780Z,99174.53
2022-09-26T16:47:42.741Z,99179.81
2022-09-26T16:50:26.997Z,99170.19
2022-09-26T16:52:55.125Z,99182.84
2022-09-26T16:55:23.151Z,99173.09
2022-09-26T16:57:53.844Z,99169.84
2022-09-26T17:00:40.974Z,99164.50
2022-09-26T17:03:21.151Z,99165.78
2022-09-26T17:05:49.171Z,99166.25
2022-09-26T17:08:17.710Z,99159.28
2022-09-26T17:10:45.995Z,99157.78
2022-09-26T17:13:16.974Z,99146.75
2022-09-26T17:15:47.608Z,99150.59
2022-09-26T17:18:20.756Z,99142.28
2022-09-26T17:20:49.057Z,99141.56
2022-09-26T17:23:39.354Z,99144.00
2022-09-26T17:26:07.795Z,99142.16
2022-09-26T17:28:38.519Z,99133.47
2022-09-26T17:31:07.797Z,99131.34
2022-09-26T17:33:39.967Z,99126.03
2022-09-26T17:36:10.792Z,99121.50
2022-09-26T17:38:42.143Z,99121.50
2022-09-26T17:41:12.427Z,99117.66
2022-09-26T17:43:40.062Z,99121.38
2022-09-26T17:46:15.173Z,99121.38
2022-09-26T17:48:44.825Z,99127.78
2022-09-26T17:51:14.127Z,99121.97
2022-09-26T17:53:49.788Z,99114.97
2022-09-26T17:56:18.503Z,99120.31
2022-09-26T17:58:47.080Z,99115.34
2022-09-26T18:01:22.148Z,99127.88
2022-09-26T18:03:54.842Z,99133.53
2022-09-26T18:06:25.925Z,99147.59
2022-09-26T18:08:54.991Z,99157.66
2022-09-26T18:11:22.615Z,99148.97
2022-09-26T18:13:54.514Z,99150.66
2022-09-26T18:16:25.118Z,99149.25
2022-09-26T18:18:54.172Z,99144.97
2022-09-26T18:21:24.280Z,99152.00
2022-09-26T18:23:53.582Z,99141.16
2022-09-26T18:26:27.262Z,99131.75
2022-09-26T18:28:56.676Z,99141.88
2022-09-26T18:31:28.124Z,99143.03
2022-09-26T18:33:57.920Z,99135.84
2022-09-26T18:36:26.155Z,99138.38
2022-09-26T18:38:53.969Z,99129.78
2022-09-26T18:41:26.860Z,99133.03
2022-09-26T18:43:55.823Z,99132.91
2022-09-26T18:46:23.658Z,99121.28
2022-09-26T18:48:51.770Z,99130.31
2022-09-26T18:51:20.899Z,99131.75
2022-09-26T18:53:48.505Z,99124.72
2022-09-26T18:56:33.705Z,99124.66
2022-09-26T18:59:01.471Z,99121.53
2022-09-26T19:01:31.373Z,99127.69
2022-09-26T19:04:00.145Z,99116.81
2022-09-26T19:06:31.988Z,99119.69
2022-09-26T19:09:01.377Z,99120.84
2022-09-26T19:11:32.002Z,99120.88
2022-09-26T19:14:02.470Z,99113.94
2022-09-26T19:16:30.128Z,99120.88
2022-09-26T19:18:57.793Z,99116.94
2022-09-26T19:21:31.734Z,99114.84
2022-09-26T19:24:01.417Z,99113.13
2022-09-26T19:26:32.362Z,99105.81
2022-09-26T19:29:00.494Z,99090.44
2022-09-26T19:31:28.329Z,99100.28
2022-09-26T19:33:56.226Z,99091.44
2022-09-26T19:36:24.050Z,99090.13
2022-09-26T19:38:53.000Z,99087.44
2022-09-26T19:41:20.619Z,99082.53
2022-09-26T19:43:48.277Z,99076.53
2022-09-26T19:46:21.143Z,99076.53
2022-09-26T19:48:48.949Z,99071.09
2022-09-26T19:51:19.727Z,99073.47
2022-09-26T19:53:47.443Z,99063.25
2022-09-26T19:56:16.479Z,99064.41
2022-09-26T19:58:46.217Z,99058.31
2022-09-26T20:01:16.420Z,99044.84
2022-09-26T20:03:44.856Z,99045.28
2022-09-26T20:06:14.232Z,99045.69
2022-09-26T20:08:42.101Z,99046.72
2022-09-26T20:11:09.853Z,99042.63
2022-09-26T20:13:52.775Z,99034.69
2022-09-26T20:16:20.724Z,99031.97
2022-09-26T20:18:51.023Z,99028.00
2022-09-26T20:21:20.302Z,99020.22
2022-09-26T20:23:48.288Z,99018.78
2022-09-26T20:26:17.334Z,99013.09
2022-09-26T20:28:46.366Z,99012.22
2022-09-26T20:31:21.437Z,99013.22
2022-09-26T20:33:49.282Z,99003.16
2022-09-26T20:36:17.469Z,99002.19
2022-09-26T20:38:47.038Z,98992.44
2022-09-26T20:41:20.424Z,98984.78
2022-09-26T20:43:51.306Z,98984.16
2022-09-26T20:46:20.872Z,98984.34
2022-09-26T20:48:50.405Z,98987.78
2022-09-26T20:51:20.388Z,98974.38
2022-09-26T20:53:50.008Z,98972.22
2022-09-26T20:56:20.873Z,98964.91
2022-09-26T20:58:49.731Z,98967.34
2022-09-26T21:01:20.939Z,98967.44
2022-09-26T21:03:56.460Z,98960.97
2022-09-26T21:06:26.605Z,98957.63
2022-09-26T21:08:54.271Z,98944.44
2022-09-26T21:11:23.742Z,98941.91
2022-09-26T21:13:52.674Z,98943.28
2022-09-26T21:16:21.370Z,98939.84
2022-09-26T21:18:51.541Z,98934.97
2022-09-26T21:21:22.570Z,98937.47
2022-09-26T21:23:50.556Z,98937.03
2022-09-26T21:26:21.026Z,98926.09
2022-09-26T21:28:50.708Z,98931.59
2022-09-26T21:31:26.002Z,98929.75
2022-09-26T21:33:54.035Z,98921.59
2022-09-26T21:36:22.179Z,98921.50
2022-09-26T21:38:51.721Z,98911.56
2022-09-26T21:41:19.574Z,98918.28
2022-09-26T21:43:50.326Z,98907.22
2022-09-26T21:46:20.318Z,98900.50
2022-09-26T21:48:51.600Z,98900.06
2022-09-26T21:51:20.657Z,98893.00
2022-09-26T21:53:53.211Z,98891.41
2022-09-26T21:56:24.347Z,98880.97
2022-09-26T21:58:56.073Z,98878.63
2022-09-26T22:01:24.187Z,98891.97
2022-09-26T22:03:55.477Z,98881.22
2022-09-26T22:06:23.339Z,98878.78
2022-09-26T22:08:54.745Z,98870.69
2022-09-26T22:11:22.293Z,98862.63
2022-09-26T22:13:49.760Z,98862.06
2022-09-26T22:16:17.802Z,98858.94
2022-09-26T22:18:45.305Z,98844.69
2022-09-26T22:21:14.190Z,98837.66
2022-09-26T22:23:41.875Z,98850.16
2022-09-26T22:26:09.491Z,98845.41
2022-09-26T22:28:37.042Z,98837.31
2022-09-26T22:31:05.686Z,98841.09
2022-09-26T22:33:33.451Z,98837.16
2022-09-26T22:36:00.930Z,98841.16
2022-09-26T22:38:29.843Z,98831.69
2022-09-26T22:40:57.763Z,98827.44
2022-09-26T22:43:25.378Z,98830.34
2022-09-26T22:45:53.145Z,98818.09
2022-09-26T22:48:21.490Z,98819.97
2022-09-26T22:50:48.966Z,98821.34
2022-09-26T22:53:16.435Z,98826.38
2022-09-26T22:55:54.706Z,98814.13
2022-09-26T22:58:22.707Z,98816.81
2022-09-26T23:00:50.967Z,98806.72
2022-09-26T23:03:18.488Z,98810.09
2022-09-26T23:05:47.911Z,98802.44
2022-09-26T23:08:15.417Z,98801.28
2022-09-26T23:10:49.232Z,98800.06
2022-09-26T23:13:18.353Z,98799.91
2022-09-26T23:15:46.169Z,98801.50
2022-09-26T23:18:14.189Z,98807.00
2022-09-26T23:20:42.362Z,98798.59
2022-09-26T23:23:10.942Z,98794.53
2022-09-26T23:25:45.837Z,98794.91
2022-09-26T23:28:13.344Z,98792.84
2022-09-26T23:30:42.524Z,98793.28
2022-09-26T23:33:10.220Z,98788.38
2022-09-26T23:35:38.161Z,98778.38
2022-09-26T23:38:05.812Z,98779.91
2022-09-26T23:40:34.177Z,98781.75
2022-09-26T23:43:02.475Z,98773.41
2022-09-26T23:45:30.960Z,98776.06
2022-09-26T23:48:00.012Z,98775.38
2022-09-26T23:50:27.469Z,98769.03
2022-09-26T23:52:54.914Z,98763.59
2022-09-26T23:55:22.425Z,98776.19
2022-09-26T23:57:50.034Z,98770.13
